Time;durP1;ratioP1;P1;durP2;ratioP2;P2;SDS_P1;SDS_P2;PMS_P1;PMS_P2;Temp;Humidity;BMP_temperature;BMP_pressure;BME280_temperature;BME280_humidity;BME280_pressure;Samples;Min_cycle;Max_cycle;Signal;HPM_P1;HPM_P2
2023/09/09 00:00:48;;;;;;;;;13.50;13.50;;;;;28.64;40.73;100753.38;6184400;22;45272;-83
2023/09/09 00:03:14;;;;;;;;;16.00;16.00;;;;;28.72;40.89;100771.56;6184333;22;45400;-83
2023/09/09 00:05:39;;;;;;;;;19.50;16.25;;;;;28.77;41.04;100790.94;6183778;23;45291;-82
2023/09/09 00:08:05;;;;;;;;;18.25;18.25;;;;;28.70;40.68;100787.34;6183811;22;45490;-84
2023/09/09 00:10:35;;;;;;;;;22.25;17.25;;;;;28.65;41.28;100778.91;6183721;22;45302;-82
2023/09/09 00:13:01;;;;;;;;;15.60;15.60;;;;;28.71;40.87;100792.59;6183486;22;45228;-83
2023/09/09 00:15:26;;;;;;;;;16.50;16.00;;;;;28.70;41.15;100784.59;6184335;22;45296;-83
2023/09/09 00:17:51;;;;;;;;;15.50;14.75;;;;;28.68;40.89;100784.81;6184024;22;45118;-85
2023/09/09 00:20:17;;;;;;;;;16.50;15.75;;;;;28.65;41.38;100787.94;6182585;23;71800;-84
2023/09/09 00:22:42;;;;;;;;;12.00;12.00;;;;;28.66;40.92;100789.63;6183418;23;45256;-84
2023/09/09 00:25:08;;;;;;;;;15.25;14.00;;;;;28.57;40.92;100770.81;6183936;23;45780;-83
2023/09/09 00:27:33;;;;;;;;;14.25;13.25;;;;;28.60;40.92;100771.25;6183595;23;45458;-83
2023/09/09 00:29:59;;;;;;;;;17.00;14.00;;;;;28.65;41.41;100787.94;6185361;22;46012;-82
2023/09/09 00:32:24;;;;;;;;;14.00;12.50;;;;;28.60;40.79;100771.25;6184638;23;53727;-85
2023/09/09 00:34:49;;;;;;;;;14.25;12.00;;;;;28.65;41.33;100774.25;6183980;23;49581;-83
2023/09/09 00:37:14;;;;;;;;;11.25;10.75;;;;;28.60;40.73;100773.16;6183521;23;60200;-83
2023/09/09 00:39:40;;;;;;;;;16.25;12.25;;;;;28.45;41.16;100754.94;6183906;23;46122;-84
2023/09/09 00:42:05;;;;;;;;;13.25;11.50;;;;;28.60;40.96;100776.72;6183655;23;45468;-83
2023/09/09 00:44:31;;;;;;;;;14.25;14.25;;;;;28.49;41.54;100760.84;6184153;23;45265;-82
2023/09/09 00:46:57;;;;;;;;;13.25;12.75;;;;;28.31;41.42;100735.91;6182985;23;45506;-84
2023/09/09 00:49:23;;;;;;;;;15.25;13.75;;;;;28.50;42.02;100773.50;6183743;22;46000;-83
2023/09/09 00:51:48;;;;;;;;;16.75;14.25;;;;;28.37;41.69;100763.28;6184495;22;45371;-85
2023/09/09 00:54:14;;;;;;;;;16.00;14.25;;;;;28.44;42.09;100777.03;6208050;22;45323;-84
2023/09/09 00:56:40;;;;;;;;;17.25;16.50;;;;;28.34;42.35;100773.78;6184611;22;45297;-83
2023/09/09 00:59:06;;;;;;;;;12.00;12.00;;;;;28.31;42.11;100775.03;6183897;22;45694;-84
2023/09/09 01:01:32;;;;;;;;;17.00;15.25;;;;;28.28;42.28;100774.59;6184105;23;45144;-84
2023/09/09 01:03:58;;;;;;;;;17.20;15.60;;;;;28.11;42.28;100755.66;6184607;23;45292;-84
2023/09/09 01:06:24;;;;;;;;;18.25;15.00;;;;;28.25;42.32;100774.94;6207517;22;45446;-84
2023/09/09 01:08:49;;;;;;;;;16.50;16.50;;;;;28.20;42.24;100773.63;6182862;23;45331;-83
2023/09/09 01:11:14;;;;;;;;;16.00;16.00;;;;;28.24;42.42;100784.19;6183953;23;45274;-84
2023/09/09 01:13:40;;;;;;;;;14.50;13.75;;;;;28.21;42.70;100780.81;6184225;22;45328;-83
2023/09/09 01:16:06;;;;;;;;;12.75;11.75;;;;;27.98;42.44;100744.59;6183376;23;45470;-83
2023/09/09 01:18:35;;;;;;;;;12.75;12.75;;;;;28.06;42.71;100758.16;6183228;22;46590;-84
2023/09/09 01:21:11;;;;;;;;;14.50;14.50;;;;;28.18;42.38;100781.19;6183194;22;45227;-83
2023/09/09 01:23:37;;;;;;;;;14.00;14.00;;;;;28.15;42.29;100781.59;6183162;22;45269;-83
2023/09/09 01:26:03;;;;;;;;;13.50;13.50;;;;;28.09;42.52;100765.97;6183730;22;45316;-82
2023/09/09 01:28:29;;;;;;;;;12.00;12.00;;;;;28.05;42.82;100767.41;6183584;23;45451;-84
2023/09/09 01:30:54;;;;;;;;;14.50;12.50;;;;;28.08;42.55;100774.38;6182580;23;45420;-84
2023/09/09 01:33:20;;;;;;;;;14.25;13.25;;;;;28.04;42.47;100773.91;6183299;22;45308;-84
2023/09/09 01:35:48;;;;;;;;;16.50;15.00;;;;;27.99;43.12;100775.53;6183210;22;45408;-84
2023/09/09 01:38:14;;;;;;;;;16.50;14.00;;;;;27.99;42.86;100781.84;6182971;22;45339;-84
2023/09/09 01:40:39;;;;;;;;;14.00;13.50;;;;;27.94;43.04;100783.47;6182275;22;45204;-84
2023/09/09 01:43:04;;;;;;;;;12.75;12.75;;;;;27.81;43.19;100770.50;6183532;23;61790;-84
2023/09/09 01:45:30;;;;;;;;;14.25;13.00;;;;;27.82;43.77;100781.25;6184855;23;45486;-84
2023/09/09 01:47:56;;;;;;;;;12.00;11.50;;;;;27.70;44.05;100776.47;6183646;23;57596;-83
2023/09/09 01:50:21;;;;;;;;;11.00;10.60;;;;;27.71;43.71;100789.94;6183145;22;45222;-83
2023/09/09 01:52:47;;;;;;;;;12.25;10.50;;;;;27.48;44.57;100757.31;6183670;23;46502;-83
2023/09/09 01:55:12;;;;;;;;;11.00;11.00;;;;;27.48;43.61;100751.84;6184450;22;45453;-83
2023/09/09 01:57:38;;;;;;;;;13.50;12.25;;;;;27.57;43.96;100775.25;6184809;22;45300;-84
2023/09/09 02:00:07;;;;;;;;;12.50;12.25;;;;;27.51;44.25;100772.47;6184360;22;45324;-82
2023/09/09 02:02:33;;;;;;;;;11.75;9.25;;;;;27.49;44.21;100777.28;6183831;22;45273;-84
2023/09/09 02:04:58;;;;;;;;;14.25;10.25;;;;;27.46;44.30;100774.91;6185694;22;45284;-83
2023/09/09 02:07:24;;;;;;;;;14.50;12.25;;;;;27.41;44.26;100761.84;6185127;23;45172;-83
2023/09/09 02:09:49;;;;;;;;;12.50;9.75;;;;;27.27;44.43;100746.31;6183173;23;45258;-84
2023/09/09 02:12:14;;;;;;;;;13.50;11.00;;;;;27.44;44.41;100777.84;6183769;23;45102;-82
2023/09/09 02:14:40;;;;;;;;;8.75;8.75;;;;;27.27;44.15;100758.09;6182395;23;47702;-84
2023/09/09 02:17:05;;;;;;;;;12.00;12.00;;;;;27.39;44.32;100769.38;6184494;22;46400;-83
2023/09/09 02:19:31;;;;;;;;;17.25;11.50;;;;;27.27;44.05;100749.91;6184791;23;45431;-84
2023/09/09 02:21:56;;;;;;;;;12.50;12.50;;;;;27.11;44.58;100730.16;6183258;22;45263;-83
2023/09/09 02:24:22;;;;;;;;;11.00;10.75;;;;;27.29;44.31;100760.63;6182673;23;45152;-84
2023/09/09 02:26:47;;;;;;;;;11.75;10.00;;;;;27.28;44.83;100767.13;6182289;23;46426;-83
2023/09/09 02:29:12;;;;;;;;;12.50;12.50;;;;;27.17;44.38;100754.81;6180680;23;45198;-84
2023/09/09 02:31:38;;;;;;;;;12.75;9.75;;;;;27.13;45.01;100741.72;6182816;23;45190;-83
2023/09/09 02:34:03;;;;;;;;;14.25;14.25;;;;;27.27;45.28;100770.91;6183037;22;45165;-83
2023/09/09 02:36:29;;;;;;;;;14.25;14.25;;;;;27.29;44.91;100771.56;6182690;22;45385;-84
2023/09/09 02:38:54;;;;;;;;;18.25;15.00;;;;;27.25;45.15;100768.38;6180639;23;45307;-84
2023/09/09 02:41:19;;;;;;;;;13.50;11.00;;;;;27.24;44.89;100765.81;6182035;23;45336;-82
2023/09/09 02:43:45;;;;;;;;;13.75;12.50;;;;;27.27;44.94;100769.00;6182502;23;45244;-82
2023/09/09 02:46:11;;;;;;;;;11.00;11.00;;;;;27.15;44.92;100750.56;6181627;23;54748;-81
2023/09/09 02:48:36;;;;;;;;;16.00;16.00;;;;;27.21;45.15;100755.25;6182539;23;45225;-84
2023/09/09 02:51:01;;;;;;;;;15.50;14.25;;;;;27.30;44.96;100770.50;6183180;22;45299;-84
2023/09/09 02:53:27;;;;;;;;;11.50;11.50;;;;;27.22;45.24;100756.97;6183649;23;50915;-83
2023/09/09 02:55:52;;;;;;;;;11.00;10.00;;;;;27.27;45.09;100776.38;6184328;22;46061;-82
2023/09/09 02:58:17;;;;;;;;;10.50;10.25;;;;;27.23;45.07;100772.31;6187398;23;45765;-84
2023/09/09 03:00:42;;;;;;;;;15.25;12.00;;;;;27.26;45.33;100774.66;6190242;23;52783;-83
2023/09/09 03:03:08;;;;;;;;;13.00;11.75;;;;;27.19;45.44;100765.53;6192044;23;45390;-83
2023/09/09 03:05:37;;;;;;;;;10.25;10.25;;;;;27.10;45.68;100758.50;6188119;23;45937;-83
2023/09/09 03:08:03;;;;;;;;;12.60;12.60;;;;;27.19;45.54;100771.84;6188676;23;45170;-82
2023/09/09 03:10:29;;;;;;;;;15.25;14.00;;;;;27.18;45.44;100778.34;6192675;23;45241;-84
2023/09/09 03:12:56;;;;;;;;;11.75;11.75;;;;;27.12;45.62;100767.34;6184879;22;45375;-83
2023/09/09 03:15:24;;;;;;;;;17.50;15.75;;;;;27.11;45.80;100771.13;6184534;22;46038;-83
2023/09/09 03:17:49;;;;;;;;;18.25;14.75;;;;;27.05;45.65;100767.25;6207030;22;45524;-83
2023/09/09 03:20:15;;;;;;;;;13.00;13.00;;;;;27.03;45.35;100759.25;6183735;22;45459;-83
2023/09/09 03:22:40;;;;;;;;;14.50;12.75;;;;;27.06;45.91;100768.94;6184329;23;45286;-82
2023/09/09 03:25:08;;;;;;;;;13.00;12.50;;;;;27.03;45.95;100769.31;6184247;22;45233;-84
2023/09/09 03:27:33;;;;;;;;;10.50;10.50;;;;;27.02;46.38;100770.34;6183366;22;45115;-83
2023/09/09 03:29:58;;;;;;;;;15.50;13.75;;;;;26.94;46.23;100759.47;6182375;23;63323;-83
2023/09/09 03:32:25;;;;;;;;;12.75;12.75;;;;;26.98;46.02;100769.84;6183829;23;45560;-84
2023/09/09 03:34:51;;;;;;;;;12.25;11.00;;;;;26.97;45.81;100762.72;6183583;23;45687;-83
2023/09/09 03:37:16;;;;;;;;;12.25;11.00;;;;;26.96;45.87;100761.00;6183718;22;45250;-83
2023/09/09 03:39:42;;;;;;;;;12.25;9.25;;;;;26.74;45.72;100723.75;6181811;23;45286;-83
2023/09/09 03:42:07;;;;;;;;;8.00;8.00;;;;;26.96;45.67;100757.44;6183983;23;45244;-84
2023/09/09 03:44:33;;;;;;;;;14.00;11.75;;;;;26.99;46.08;100762.50;6182441;23;70355;-84
2023/09/09 03:46:58;;;;;;;;;14.75;14.00;;;;;26.93;46.13;100766.81;6182762;23;57014;-83
2023/09/09 03:49:23;;;;;;;;;11.25;11.25;;;;;26.87;46.57;100758.56;6183292;23;49319;-83
2023/09/09 03:51:48;;;;;;;;;16.25;15.50;;;;;26.74;47.10;100759.22;6184125;22;45347;-84
2023/09/09 03:54:14;;;;;;;;;13.00;12.00;;;;;26.81;46.83;100771.06;6182915;23;57861;-83
2023/09/09 03:56:39;;;;;;;;;13.50;13.50;;;;;26.68;47.14;100749.03;6183580;23;49841;-83
2023/09/09 03:59:04;;;;;;;;;17.50;15.75;;;;;26.72;47.49;100761.28;6183782;23;45282;-83
2023/09/09 04:01:30;;;;;;;;;19.25;16.75;;;;;26.71;47.65;100773.25;6182984;23;55115;-84
2023/09/09 04:03:56;;;;;;;;;19.00;16.50;;;;;26.69;47.38;100772.53;6183140;22;46007;-82
2023/09/09 04:06:21;;;;;;;;;18.50;15.00;;;;;26.57;47.62;100754.97;6183862;22;45634;-84
2023/09/09 04:08:47;;;;;;;;;19.25;16.25;;;;;26.66;47.83;100767.47;6183546;22;45655;-84
2023/09/09 04:11:12;;;;;;;;;12.25;9.25;;;;;26.67;47.50;100769.16;6184195;22;45427;-84
2023/09/09 04:13:38;;;;;;;;;17.75;14.50;;;;;26.65;48.04;100772.09;6183797;23;46068;-84
2023/09/09 04:16:04;;;;;;;;;19.75;14.25;;;;;26.60;48.21;100782.72;6183338;23;45309;-83
2023/09/09 04:18:29;;;;;;;;;12.25;11.25;;;;;26.54;48.24;100782.59;6184108;23;45419;-83
2023/09/09 04:20:54;;;;;;;;;14.25;13.50;;;;;26.50;48.45;100784.00;6184659;23;45325;-83
2023/09/09 04:23:20;;;;;;;;;14.50;13.75;;;;;26.48;48.65;100780.63;6184010;22;52319;-81
2023/09/09 04:25:46;;;;;;;;;15.25;15.25;;;;;26.45;48.51;100779.97;6183894;22;45230;-83
2023/09/09 04:28:13;;;;;;;;;18.00;16.75;;;;;26.50;49.13;100778.56;6183582;22;45395;-84
2023/09/09 04:30:39;;;;;;;;;13.00;13.00;;;;;26.30;49.05;100757.22;6183677;23;45344;-83
2023/09/09 04:33:12;;;;;;;;;18.50;16.00;;;;;26.34;49.08;100763.16;6183525;23;45409;-84
2023/09/09 04:35:39;;;;;;;;;22.00;19.75;;;;;26.44;48.92;100789.19;6183814;22;45308;-83
2023/09/09 04:38:05;;;;;;;;;15.50;14.25;;;;;26.44;48.92;100781.00;6183282;22;45223;-83
2023/09/09 04:40:31;;;;;;;;;19.75;17.25;;;;;26.40;49.10;100779.66;6183319;22;45170;-84
2023/09/09 04:42:56;;;;;;;;;15.50;12.75;;;;;26.19;49.09;100754.09;6183203;23;45211;-84
2023/09/09 04:45:23;;;;;;;;;17.25;16.00;;;;;26.24;49.36;100771.59;6182173;23;63314;-85
2023/09/09 04:47:49;;;;;;;;;16.50;15.00;;;;;26.30;49.50;100784.47;6183439;23;45281;-84
2023/09/09 04:50:15;;;;;;;;;17.25;13.75;;;;;26.29;49.54;100781.94;6184184;22;45423;-83
2023/09/09 04:52:40;;;;;;;;;15.50;13.25;;;;;26.22;49.88;100781.84;6183981;22;46094;-83
2023/09/09 04:55:06;;;;;;;;;14.00;13.25;;;;;26.19;50.01;100782.22;6182593;23;61405;-83
2023/09/09 04:57:31;;;;;;;;;19.00;16.50;;;;;26.01;50.36;100762.56;6183175;23;45351;-83
2023/09/09 04:59:57;;;;;;;;;15.25;14.25;;;;;26.09;50.21;100777.00;6183624;23;45261;-84
2023/09/09 05:02:22;;;;;;;;;18.33;15.00;;;;;26.08;50.45;100779.91;6183055;23;45354;-83
2023/09/09 05:04:47;;;;;;;;;19.50;14.00;;;;;26.08;50.49;100785.34;6183708;22;45322;-84
2023/09/09 05:07:12;;;;;;;;;15.50;13.50;;;;;26.03;50.41;100777.72;6182686;23;66069;-83
2023/09/09 05:09:38;;;;;;;;;16.50;13.75;;;;;25.95;50.58;100768.75;6183965;23;45298;-82
2023/09/09 05:12:03;;;;;;;;;20.00;17.75;;;;;26.02;50.50;100783.34;6182000;23;66289;-84
2023/09/09 05:14:29;;;;;;;;;19.25;13.50;;;;;26.00;50.53;100785.41;6182865;23;45328;-84
2023/09/09 05:16:54;;;;;;;;;18.50;14.75;;;;;26.04;50.50;100784.00;6183423;23;45253;-83
2023/09/09 05:19:19;;;;;;;;;12.50;11.00;;;;;25.88;50.53;100753.13;6183681;23;45169;-84
2023/09/09 05:21:45;;;;;;;;;13.50;12.00;;;;;26.08;50.45;100783.47;6183438;22;45832;-84
2023/09/09 05:24:10;;;;;;;;;15.00;15.00;;;;;26.09;50.37;100789.78;6183049;22;45286;-82
2023/09/09 05:26:35;;;;;;;;;14.75;14.75;;;;;26.07;50.25;100783.66;6179626;23;51400;-84
2023/09/09 05:29:02;;;;;;;;;18.50;14.00;;;;;26.05;50.56;100789.31;6178893;23;45343;-85
2023/09/09 05:31:27;;;;;;;;;16.75;15.00;;;;;26.04;50.65;100793.06;6182454;22;45273;-83
2023/09/09 05:33:52;;;;;;;;;18.25;16.25;;;;;25.99;50.78;100786.44;6182159;22;45177;-82
2023/09/09 05:36:18;;;;;;;;;14.50;14.00;;;;;25.98;50.82;100782.03;6184680;22;45275;-83
2023/09/09 05:38:43;;;;;;;;;15.50;15.50;;;;;25.99;50.86;100798.19;6183140;23;45562;-84
2023/09/09 05:41:08;;;;;;;;;19.50;15.25;;;;;25.95;51.07;100790.56;6180082;23;73314;-84
2023/09/09 05:43:33;;;;;;;;;16.25;14.75;;;;;25.95;51.16;100796.00;6181724;23;63022;-85
2023/09/09 05:45:59;;;;;;;;;19.00;16.50;;;;;25.83;51.18;100782.81;6181678;23;61470;-84
2023/09/09 05:48:25;;;;;;;;;15.00;14.75;;;;;25.97;51.12;100804.84;6182481;22;45474;-84
2023/09/09 05:50:51;;;;;;;;;20.00;20.00;;;;;26.07;50.55;100810.91;6182057;22;45382;-84
2023/09/09 05:53:16;;;;;;;;;18.00;15.00;;;;;26.10;50.83;100810.56;6182450;22;45218;-83
2023/09/09 05:55:42;;;;;;;;;16.00;16.00;;;;;26.03;50.90;100798.66;6182402;23;45401;-84
2023/09/09 05:58:07;;;;;;;;;14.00;14.00;;;;;26.04;51.03;100792.19;6182524;23;45325;-85
2023/09/09 06:00:33;;;;;;;;;16.50;15.00;;;;;26.15;51.02;100819.03;6182022;23;45934;-87
2023/09/09 06:02:58;;;;;;;;;21.00;18.00;;;;;25.93;50.73;100768.09;6182583;22;45284;-86
2023/09/09 06:05:24;;;;;;;;;18.33;16.33;;;;;25.90;51.17;100776.63;6183190;23;45272;-86
2023/09/09 06:07:49;;;;;;;;;15.75;15.75;;;;;26.24;51.00;100817.94;6183007;23;45401;-84
2023/09/09 06:10:15;;;;;;;;;17.67;17.67;;;;;26.21;50.69;100796.50;6181517;23;46327;-80
2023/09/09 06:12:41;;;;;;;;;24.25;18.25;;;;;26.35;50.32;100812.06;6179599;23;45238;-84
2023/09/09 06:15:07;;;;;;;;;20.33;20.00;;;;;26.15;50.53;100764.50;6182754;22;45126;-82
2023/09/09 06:17:32;;;;;;;;;21.00;17.25;;;;;26.49;50.10;100815.88;6182250;22;45253;-82
2023/09/09 06:19:57;;;;;;;;;21.67;19.67;;;;;26.50;50.50;100812.13;6180841;23;67045;-82
2023/09/09 06:22:23;;;;;;;;;19.00;16.50;;;;;26.64;49.89;100815.91;6181541;23;45256;-83
2023/09/09 06:24:48;;;;;;;;;17.00;17.00;;;;;26.59;49.54;100794.66;6180954;23;45293;-82
2023/09/09 06:27:13;;;;;;;;;20.75;19.00;;;;;26.83;49.57;100823.59;6183011;23;45582;-88
2023/09/09 06:29:39;;;;;;;;;21.75;17.75;;;;;26.88;49.39;100826.59;6182829;23;45634;-84
2023/09/09 06:32:06;;;;;;;;;22.50;19.75;;;;;26.92;49.80;100818.88;6182366;22;67741;-85
2023/09/09 06:34:31;;;;;;;;;18.67;17.00;;;;;27.00;49.14;100818.78;6182772;22;45352;-85
2023/09/09 06:36:57;;;;;;;;;25.00;17.25;;;;;27.08;49.24;100828.78;6182302;22;45300;-84
2023/09/09 06:39:22;;;;;;;;;17.75;15.00;;;;;27.04;48.53;100820.13;6181639;22;45519;-83
2023/09/09 06:41:47;;;;;;;;;20.50;18.25;;;;;27.17;48.98;100824.94;6180926;23;45363;-84
2023/09/09 06:44:13;;;;;;;;;11.25;11.25;;;;;27.26;47.72;100835.59;6184786;23;45395;-84
2023/09/09 06:46:38;;;;;;;;;12.25;12.25;;;;;27.37;47.60;100834.28;6182786;23;44887;-83
2023/09/09 06:49:03;;;;;;;;;13.50;12.00;;;;;27.41;47.49;100832.00;6182152;23;48244;-82
2023/09/09 06:51:29;;;;;;;;;11.75;10.25;;;;;27.43;47.00;100828.03;6181936;23;45341;-83
2023/09/09 06:53:54;;;;;;;;;14.00;12.50;;;;;27.39;47.44;100809.50;6185528;23;45255;-82
2023/09/09 06:56:19;;;;;;;;;12.00;12.00;;;;;27.53;47.14;100836.78;6183646;23;45872;-88
2023/09/09 06:58:45;;;;;;;;;12.00;12.00;;;;;27.52;47.25;100826.91;6182655;23;45565;-85
2023/09/09 07:01:11;;;;;;;;;9.50;7.75;;;;;27.57;46.81;100832.63;6179896;23;47446;-83
2023/09/09 07:03:36;;;;;;;;;11.25;10.50;;;;;27.54;46.69;100832.16;6181560;23;45366;-82
2023/09/09 07:06:02;;;;;;;;;9.25;9.25;;;;;27.50;47.01;100837.19;6181484;23;56669;-83
2023/09/09 07:08:28;;;;;;;;;9.25;8.50;;;;;27.50;46.65;100831.72;6180612;23;46096;-83
2023/09/09 07:10:53;;;;;;;;;13.25;12.50;;;;;27.37;46.77;100828.81;6182551;22;45269;-84
2023/09/09 07:13:23;;;;;;;;;14.50;13.25;;;;;27.47;47.16;100832.06;6178857;23;45297;-84
2023/09/09 07:15:52;;;;;;;;;11.50;10.50;;;;;27.52;46.99;100835.09;6179927;22;45447;-86
2023/09/09 07:18:17;;;;;;;;;10.50;10.25;;;;;27.38;46.58;100825.03;6181127;22;45628;-82
2023/09/09 07:20:45;;;;;;;;;13.75;9.50;;;;;27.50;46.76;100830.88;6186156;23;45256;-82
2023/09/09 07:23:10;;;;;;;;;9.75;9.50;;;;;27.54;46.87;100827.56;6182461;23;45296;-89
2023/09/09 07:25:36;;;;;;;;;10.00;8.00;;;;;27.55;46.51;100833.88;6188321;22;44845;-81
2023/09/09 07:28:02;;;;;;;;;14.50;10.25;;;;;27.59;46.45;100835.16;6185890;23;45890;-83
2023/09/09 07:30:28;;;;;;;;;12.40;9.60;;;;;27.69;46.91;100843.09;6191058;23;45743;-83
2023/09/09 07:32:53;;;;;;;;;9.00;8.75;;;;;27.73;46.21;100842.53;6194575;22;45357;-81
2023/09/09 07:35:18;;;;;;;;;12.00;11.25;;;;;27.71;46.32;100835.56;6195599;23;45279;-81
2023/09/09 07:37:43;;;;;;;;;15.25;12.00;;;;;27.67;46.26;100837.00;6198765;22;45385;-84
2023/09/09 07:40:10;;;;;;;;;13.00;12.75;;;;;27.62;45.93;100824.72;6198492;23;57662;-80
2023/09/09 07:42:35;;;;;;;;;15.50;13.00;;;;;27.71;45.67;100838.28;6199605;22;44650;-81
2023/09/09 07:45:00;;;;;;;;;14.25;11.25;;;;;27.68;45.97;100838.69;6194183;23;56500;-85
2023/09/09 07:47:26;;;;;;;;;14.25;12.75;;;;;27.73;46.24;100836.22;6215927;22;47879;-85
2023/09/09 07:49:51;;;;;;;;;15.25;15.25;;;;;27.87;45.68;100844.41;6193255;23;45138;-82
2023/09/09 07:52:16;;;;;;;;;17.75;14.00;;;;;27.91;45.89;100842.97;6194343;23;61315;-85
2023/09/09 07:54:42;;;;;;;;;16.75;10.75;;;;;27.88;45.50;100839.78;6192347;23;45181;-86
2023/09/09 07:57:07;;;;;;;;;10.25;10.25;;;;;27.81;45.30;100849.78;6184362;22;45820;-85
2023/09/09 07:59:32;;;;;;;;;11.75;9.00;;;;;27.84;45.71;100849.38;6184241;23;45400;-84
2023/09/09 08:01:58;;;;;;;;;11.25;11.25;;;;;27.86;45.77;100839.09;6184508;23;45459;-86
2023/09/09 08:04:23;;;;;;;;;16.00;14.00;;;;;27.90;45.21;100843.16;6186151;23;45304;-82
2023/09/09 08:06:52;;;;;;;;;9.75;8.25;;;;;27.85;45.87;100845.59;6188073;22;45423;-85
2023/09/09 08:09:18;;;;;;;;;12.20;12.20;;;;;27.87;45.34;100843.56;6187453;22;45336;-83
2023/09/09 08:11:43;;;;;;;;;12.75;11.50;;;;;27.89;45.39;100838.75;6187310;23;45423;-84
2023/09/09 08:14:09;;;;;;;;;17.50;15.00;;;;;27.82;45.45;100830.44;6188027;23;50719;-84
2023/09/09 08:16:34;;;;;;;;;15.25;13.25;;;;;27.91;44.90;100850.31;6187384;23;46196;-82
2023/09/09 08:19:00;;;;;;;;;11.50;11.50;;;;;27.86;44.83;100839.09;6188681;23;45383;-85
2023/09/09 08:21:25;;;;;;;;;17.25;16.50;;;;;27.88;45.00;100834.31;6184157;22;45193;-80
2023/09/09 08:23:52;;;;;;;;;11.75;11.75;;;;;28.03;44.48;100853.41;6182849;23;45200;-86
2023/09/09 08:26:17;;;;;;;;;10.50;9.25;;;;;27.97;44.62;100835.88;6183953;22;45434;-85
2023/09/09 08:28:43;;;;;;;;;14.00;10.25;;;;;28.11;44.08;100859.56;6183921;23;45265;-86
2023/09/09 08:31:08;;;;;;;;;11.00;11.00;;;;;28.19;44.31;100859.47;6184074;22;45288;-82
2023/09/09 08:33:33;;;;;;;;;11.25;9.00;;;;;28.25;43.92;100852.34;6183976;23;45142;-84
2023/09/09 08:36:00;;;;;;;;;8.75;8.50;;;;;28.27;43.58;100854.94;6184655;23;45582;-85
2023/09/09 08:38:25;;;;;;;;;13.40;11.60;;;;;28.19;43.45;100854.00;6183751;23;45420;-83
2023/09/09 08:41:03;;;;;;;;;14.00;12.50;;;;;28.28;43.46;100859.38;6183835;23;45483;-87
2023/09/09 08:43:44;;;;;;;;;14.50;13.75;;;;;28.39;43.71;100853.38;6183836;22;45357;-86
2023/09/09 08:46:13;;;;;;;;;14.25;12.75;;;;;28.48;43.27;100857.66;6183427;22;45904;-84
2023/09/09 08:48:40;;;;;;;;;11.00;10.80;;;;;28.48;42.59;100863.13;6183089;22;45251;-85
2023/09/09 08:51:11;;;;;;;;;15.00;13.75;;;;;28.52;42.73;100853.50;6183836;22;45179;-84
2023/09/09 08:53:39;;;;;;;;;12.75;11.75;;;;;28.50;42.76;100839.16;6184864;22;45431;-84
2023/09/09 08:56:05;;;;;;;;;11.00;10.50;;;;;28.71;42.54;100855.56;6207956;22;46711;-84
2023/09/09 08:58:30;;;;;;;;;15.75;12.00;;;;;28.73;42.22;100847.16;6184921;22;45125;-85
2023/09/09 09:00:57;;;;;;;;;14.25;11.75;;;;;28.66;42.37;100843.53;6187016;23;45242;-86
2023/09/09 09:03:24;;;;;;;;;15.25;12.00;;;;;28.73;42.42;100850.72;6187423;22;45140;-88
2023/09/09 09:05:53;;;;;;;;;10.50;10.00;;;;;28.86;42.62;100855.47;6191224;23;46125;-84
2023/09/09 09:08:18;;;;;;;;;11.80;11.60;;;;;28.94;41.97;100851.78;6190873;22;45364;-84
2023/09/09 09:10:47;;;;;;;;;14.75;11.75;;;;;28.97;42.16;100851.38;6187970;23;45404;-84
2023/09/09 09:13:12;;;;;;;;;15.75;13.00;;;;;29.01;41.93;100834.31;6188690;23;45094;-85
2023/09/09 09:15:41;;;;;;;;;14.50;12.75;;;;;29.07;41.53;100841.75;6185930;23;46219;-84
2023/09/09 09:18:08;;;;;;;;;14.80;13.60;;;;;29.00;41.37;100823.56;6190869;23;45711;-86
2023/09/09 09:20:33;;;;;;;;;13.75;12.25;;;;;29.21;41.57;100837.22;6189495;23;45294;-84
2023/09/09 09:23:04;;;;;;;;;14.50;11.50;;;;;29.30;41.07;100837.91;6191000;23;45408;-83
2023/09/09 09:25:36;;;;;;;;;14.75;12.50;;;;;29.51;41.25;100865.22;6191847;22;46051;-84
2023/09/09 09:28:03;;;;;;;;;14.60;12.60;;;;;29.58;40.97;100854.28;6185566;22;45204;-84
2023/09/09 09:30:29;;;;;;;;;16.50;13.50;;;;;29.55;40.86;100836.34;6185977;22;45157;-84
2023/09/09 09:32:56;;;;;;;;;16.75;13.75;;;;;29.50;40.55;100829.78;6184695;23;45463;-85
2023/09/09 09:35:26;;;;;;;;;12.50;11.25;;;;;29.65;39.87;100844.19;6186874;22;45351;-83
2023/09/09 09:37:53;;;;;;;;;15.60;14.20;;;;;29.79;40.25;100856.03;6185509;23;45242;-83
2023/09/09 09:40:18;;;;;;;;;15.60;14.60;;;;;29.84;39.95;100859.03;6186376;23;45228;-83
2023/09/09 09:42:43;;;;;;;;;13.75;11.75;;;;;29.88;39.78;100852.94;6187216;22;45258;-84
2023/09/09 09:45:10;;;;;;;;;18.25;13.75;;;;;29.80;39.92;100836.66;6186984;23;45176;-84
2023/09/09 09:47:50;;;;;;;;;11.20;10.60;;;;;29.95;39.67;100844.75;6215846;22;45272;-85
2023/09/09 09:50:34;;;;;;;;;12.40;12.40;;;;;30.10;40.07;100863.78;6190979;23;45205;-84
2023/09/09 09:53:07;;;;;;;;;15.75;14.25;;;;;29.91;39.56;100811.38;6184007;22;45747;-83
2023/09/09 09:55:35;;;;;;;;;13.20;12.00;;;;;30.15;39.36;100847.53;6193805;22;44890;-86
2023/09/09 09:58:02;;;;;;;;;15.00;13.20;;;;;30.21;39.61;100852.19;6191094;22;45264;-87
2023/09/09 10:00:29;;;;;;;;;18.60;15.00;;;;;30.30;39.38;100850.94;6191899;22;45383;-84
2023/09/09 10:02:56;;;;;;;;;14.25;13.75;;;;;30.31;39.21;100843.56;6183564;23;45512;-86
2023/09/09 10:05:26;;;;;;;;;15.40;13.60;;;;;30.31;39.29;100847.16;6186425;23;47211;-85
2023/09/09 10:07:56;;;;;;;;;14.80;12.20;;;;;30.40;39.29;100854.13;6184761;22;45174;-86
2023/09/09 10:10:23;;;;;;;;;14.20;13.80;;;;;30.43;38.85;100853.69;6190113;22;45248;-84
2023/09/09 10:13:03;;;;;;;;;16.00;14.75;;;;;30.46;38.57;100836.81;6197610;22;45324;-82
2023/09/09 10:15:30;;;;;;;;;19.00;15.50;;;;;30.57;39.08;100840.00;6187057;22;45264;-84
2023/09/09 10:17:59;;;;;;;;;14.40;13.40;;;;;30.69;38.33;100852.06;6183771;22;45272;-82
2023/09/09 10:20:24;;;;;;;;;14.80;14.40;;;;;30.78;38.82;100846.16;6184182;22;45374;-87
2023/09/09 10:22:59;;;;;;;;;13.50;12.50;;;;;30.81;38.05;100833.88;6190687;23;45451;-88
2023/09/09 10:25:26;;;;;;;;;17.60;15.60;;;;;30.93;38.91;100836.84;6185903;22;46223;-86
2023/09/09 10:27:52;;;;;;;;;15.00;15.00;;;;;31.01;38.26;100839.38;6183242;22;45244;-83
2023/09/09 10:30:18;;;;;;;;;19.50;19.50;;;;;31.16;38.01;100836.38;6183825;23;45241;-89
2023/09/09 10:32:45;;;;;;;;;12.75;12.25;;;;;31.21;37.28;100836.59;6185241;23;45418;-89
2023/09/09 10:35:11;;;;;;;;;14.60;13.00;;;;;31.26;37.23;100828.56;6159057;23;48170;-89
2023/09/09 10:37:37;;;;;;;;;16.00;16.00;;;;;31.40;37.04;100832.97;6183040;23;45277;-89
2023/09/09 10:40:05;;;;;;;;;16.40;15.80;;;;;31.58;36.66;100835.84;6186164;23;45313;-89
2023/09/09 10:42:31;;;;;;;;;16.50;15.25;;;;;31.83;36.60;100835.13;6211200;22;45277;-91
2023/09/09 10:45:30;;;;;;;;;16.20;15.60;;;;;32.10;36.27;100839.41;6188950;22;46067;-90
2023/09/09 10:48:03;;;;;;;;;14.40;13.20;;;;;32.31;34.55;100829.16;6210620;22;45581;-87
2023/09/09 10:50:49;;;;;;;;;15.80;13.40;;;;;32.55;34.42;100831.94;6185574;22;45189;-89
2023/09/09 10:53:24;;;;;;;;;11.60;11.00;;;;;32.82;34.63;100831.72;6184956;22;45468;-89
2023/09/09 10:55:55;;;;;;;;;15.00;14.20;;;;;33.13;33.19;100825.25;6192836;22;45177;-87
2023/09/09 10:58:31;;;;;;;;;15.00;14.80;;;;;33.36;33.23;100808.06;6197108;23;45243;-84
2023/09/09 11:00:58;;;;;;;;;12.40;12.40;;;;;33.78;32.08;100814.53;6190650;22;45234;-87
2023/09/09 11:03:47;;;;;;;;;17.40;14.40;;;;;34.18;31.85;100813.97;6185778;23;45213;-87
2023/09/09 11:06:20;;;;;;;;;15.60;14.80;;;;;34.50;31.13;100800.72;6181791;23;47430;-88